createdAt,value
2022-08-18T00:02:04.211Z,67.56
2022-08-18T00:05:12.995Z,67.85
2022-08-18T00:08:20.393Z,68.23
2022-08-18T00:11:26.958Z,68.22
2022-08-18T00:14:35.754Z,68.46
2022-08-18T00:17:41.573Z,68.89
2022-08-18T00:20:53.816Z,69.17
2022-08-18T00:24:12.923Z,69.25
2022-08-18T00:27:23.209Z,69.27
2022-08-18T00:30:40.822Z,70.19
2022-08-18T00:33:53.218Z,70.17
2022-08-18T00:36:58.794Z,69.98
2022-08-18T00:40:04.939Z,69.96
2022-08-18T00:43:17.795Z,69.72
2022-08-18T00:46:30.850Z,69.83
2022-08-18T00:49:36.717Z,69.91
2022-08-18T00:52:44.149Z,69.44
2022-08-18T00:55:53.876Z,69.08
2022-08-18T00:59:09.198Z,69.07
2022-08-18T01:02:29.594Z,69.08
2022-08-18T01:05:45.370Z,68.97
2022-08-18T01:08:52.293Z,70.00
2022-08-18T01:11:58.489Z,69.93
2022-08-18T01:15:05.760Z,69.92
2022-08-18T01:18:29.973Z,69.28
2022-08-18T01:21:54.502Z,69.63
2022-08-18T01:25:26.384Z,69.39
2022-08-18T01:28:42.743Z,68.83
2022-08-18T01:31:56.466Z,69.09
2022-08-18T01:35:04.445Z,68.88
2022-08-18T01:38:13.640Z,69.88
2022-08-18T01:41:30.412Z,69.68
2022-08-18T01:44:36.782Z,69.46
2022-08-18T01:47:47.354Z,69.81
2022-08-18T01:50:54.670Z,69.75
2022-08-18T01:54:00.736Z,69.71
2022-08-18T01:57:14.748Z,70.58
2022-08-18T02:00:22.239Z,70.34
2022-08-18T02:03:39.241Z,70.32
2022-08-18T02:06:48.026Z,70.56
2022-08-18T02:09:53.677Z,70.91
2022-08-18T02:13:01.985Z,71.19
2022-08-18T02:16:08.907Z,71.39
2022-08-18T02:19:15.484Z,71.79
2022-08-18T02:22:24.968Z,71.28
2022-08-18T02:25:30.510Z,70.79
2022-08-18T02:28:39.151Z,71.11
2022-08-18T02:31:46.304Z,70.06
2022-08-18T02:34:52.061Z,70.17
2022-08-18T02:37:57.644Z,69.25
2022-08-18T02:41:09.641Z,68.90
2022-08-18T02:44:17.871Z,69.37
2022-08-18T02:47:23.728Z,70.71
2022-08-18T02:50:29.307Z,71.26
2022-08-18T02:53:36.020Z,72.16
2022-08-18T02:56:51.441Z,72.11
2022-08-18T03:00:03.591Z,73.07
2022-08-18T03:03:21.147Z,74.56
2022-08-18T03:06:29.199Z,74.88
2022-08-18T03:09:37.591Z,74.46
2022-08-18T03:12:45.406Z,73.88
2022-08-18T03:15:57.064Z,73.57
2022-08-18T03:19:05.443Z,73.90
2022-08-18T03:22:27.635Z,73.68
2022-08-18T03:25:34.914Z,73.13
2022-08-18T03:28:49.905Z,73.72
2022-08-18T03:31:58.389Z,74.72
2022-08-18T03:35:23.723Z,75.14
2022-08-18T03:38:29.258Z,74.85
2022-08-18T03:41:43.605Z,75.41
2022-08-18T03:45:13.427Z,74.93
2022-08-18T03:48:29.280Z,74.57
2022-08-18T03:51:40.275Z,74.80
2022-08-18T03:54:46.776Z,74.97
2022-08-18T03:57:53.259Z,74.58
2022-08-18T04:01:09.138Z,74.74
2022-08-18T04:04:21.688Z,74.95
2022-08-18T04:07:27.237Z,75.16
2022-08-18T04:10:33.449Z,76.12
2022-08-18T04:13:39.512Z,75.78
2022-08-18T04:16:46.179Z,74.99
2022-08-18T04:19:54.733Z,74.77
2022-08-18T04:23:00.304Z,74.08
2022-08-18T04:26:11.410Z,74.13
2022-08-18T04:29:25.830Z,73.55
2022-08-18T04:32:33.745Z,73.11
2022-08-18T04:35:41.951Z,73.04
2022-08-18T04:38:48.418Z,72.01
2022-08-18T04:41:54.981Z,71.10
2022-08-18T04:45:00.890Z,69.65
2022-08-18T04:48:07.439Z,69.04
2022-08-18T04:52:36.412Z,68.02
2022-08-18T04:54:44.728Z,67.75
2022-08-18T04:57:50.420Z,67.26
2022-08-18T05:01:11.057Z,65.26
2022-08-18T05:04:22.289Z,64.81
2022-08-18T05:07:30.562Z,62.74
2022-08-18T05:10:36.292Z,61.51
2022-08-18T05:13:43.127Z,58.28
2022-08-18T05:16:49.668Z,55.44
2022-08-18T05:19:55.419Z,54.06
2022-08-18T05:23:03.850Z,54.98
2022-08-18T05:26:09.677Z,53.31
2022-08-18T05:29:19.141Z,52.86
2022-08-18T05:32:41.099Z,53.53
2022-08-18T05:36:15.464Z,54.16
2022-08-18T05:39:30.580Z,52.58
2022-08-18T05:42:42.864Z,50.31
2022-08-18T05:45:54.816Z,50.14
2022-08-18T05:49:00.467Z,49.12
2022-08-18T05:52:17.212Z,48.55
2022-08-18T05:55:49.671Z,48.90
2022-08-18T05:58:59.158Z,49.64
2022-08-18T06:02:28.115Z,50.05
2022-08-18T06:05:41.400Z,51.40
2022-08-18T06:08:55.454Z,50.94
2022-08-18T06:12:14.827Z,50.30
2022-08-18T06:15:32.819Z,49.61
2022-08-18T06:18:57.510Z,49.68
2022-08-18T06:22:19.388Z,48.00
2022-08-18T06:25:38.958Z,47.36
2022-08-18T06:29:12.127Z,46.85
2022-08-18T06:32:38.152Z,47.89
2022-08-18T06:35:56.933Z,46.10
2022-08-18T06:39:20.749Z,44.64
2022-08-18T06:42:32.814Z,43.78
2022-08-18T06:45:52.334Z,42.39
2022-08-18T06:49:06.949Z,42.85
2022-08-18T06:52:31.244Z,42.05
2022-08-18T06:55:40.929Z,41.82
2022-08-18T06:58:51.213Z,41.63
2022-08-18T07:02:07.924Z,40.44
2022-08-18T07:05:28.780Z,40.25
2022-08-18T07:08:40.515Z,39.45
2022-08-18T07:12:10.144Z,38.79
2022-08-18T07:15:26.138Z,39.67
2022-08-18T07:18:34.740Z,39.81
2022-08-18T07:21:43.854Z,41.00
2022-08-18T07:24:54.511Z,41.36
2022-08-18T07:28:02.227Z,42.40
2022-08-18T07:31:25.216Z,41.23
2022-08-18T07:34:42.457Z,41.35
2022-08-18T07:38:40.885Z,39.60
2022-08-18T07:41:56.342Z,38.12
2022-08-18T07:45:12.900Z,39.40
2022-08-18T07:48:39.916Z,40.32
2022-08-18T07:51:57.063Z,39.34
2022-08-18T07:55:27.494Z,38.65
2022-08-18T07:58:47.605Z,38.07
2022-08-18T08:02:21.207Z,38.35
2022-08-18T08:06:00.508Z,38.33
2022-08-18T08:09:55.783Z,37.62
2022-08-18T08:13:54.168Z,36.83
2022-08-18T08:17:25.841Z,36.10
2022-08-18T08:20:46.318Z,37.07
2022-08-18T08:24:08.773Z,37.61
2022-08-18T08:27:39.017Z,40.35
2022-08-18T08:31:33.103Z,42.53
2022-08-18T08:34:53.495Z,40.32
2022-08-18T08:38:39.335Z,38.58
2022-08-18T08:41:51.405Z,37.05
2022-08-18T08:45:09.855Z,36.68
2022-08-18T08:48:26.482Z,37.08
2022-08-18T08:51:42.785Z,36.83
2022-08-18T08:54:57.286Z,37.00
2022-08-18T08:58:24.766Z,36.51
2022-08-18T09:01:56.055Z,36.39
2022-08-18T09:05:17.839Z,35.32
2022-08-18T09:09:01.964Z,34.76
2022-08-18T09:12:42.211Z,34.67
2022-08-18T09:16:18.180Z,34.58
2022-08-18T09:20:05.221Z,34.14
2022-08-18T09:23:22.129Z,34.13
2022-08-18T09:26:43.752Z,35.81
2022-08-18T09:29:57.639Z,32.63
2022-08-18T09:33:37.517Z,34.61
2022-08-18T09:37:16.378Z,33.97
2022-08-18T09:41:01.704Z,36.62
2022-08-18T09:44:21.186Z,35.37
2022-08-18T09:48:03.459Z,36.05
2022-08-18T09:51:41.312Z,35.72
2022-08-18T09:55:02.147Z,33.44
2022-08-18T10:01:52.483Z,32.65
2022-08-18T10:05:31.501Z,33.79
2022-08-18T10:09:35.994Z,33.23
2022-08-18T10:13:24.734Z,34.64
2022-08-18T10:17:13.230Z,34.04
2022-08-18T10:20:38.977Z,33.32
2022-08-18T10:24:21.967Z,32.77
2022-08-18T10:27:57.731Z,33.98
2022-08-18T10:31:09.753Z,33.75
2022-08-18T10:34:36.617Z,33.06
2022-08-18T10:37:51.194Z,33.09
2022-08-18T10:44:44.779Z,34.05
2022-08-18T10:48:24.351Z,35.00
2022-08-18T10:52:02.107Z,34.74
2022-08-18T10:55:48.283Z,34.01
2022-08-18T10:59:17.980Z,33.20
2022-08-18T11:03:02.669Z,32.54
2022-08-18T11:06:26.858Z,33.14
2022-08-18T11:09:35.188Z,32.92
2022-08-18T11:13:12.233Z,32.71
2022-08-18T11:16:39.078Z,32.84
2022-08-18T11:19:50.783Z,32.30
2022-08-18T11:23:05.800Z,32.03
2022-08-18T11:26:19.554Z,30.98
2022-08-18T11:29:35.028Z,32.66
2022-08-18T11:32:51.542Z,32.61
2022-08-18T11:36:09.239Z,31.18
2022-08-18T11:39:35.973Z,31.54
2022-08-18T11:42:58.243Z,30.62
2022-08-18T11:46:17.535Z,31.48
2022-08-18T11:49:35.982Z,31.36
2022-08-18T11:52:57.179Z,30.86
2022-08-18T11:56:17.978Z,32.27
2022-08-18T11:59:52.734Z,31.02
2022-08-18T12:03:05.993Z,31.98
2022-08-18T12:06:27.978Z,32.64
2022-08-18T12:10:17.975Z,32.20
2022-08-18T12:13:27.376Z,31.00
2022-08-18T12:16:46.575Z,32.33
2022-08-18T12:20:02.576Z,30.99
2022-08-18T12:23:23.451Z,31.77
2022-08-18T12:26:38.836Z,31.40
2022-08-18T12:29:53.745Z,31.86
2022-08-18T12:33:07.819Z,32.08
2022-08-18T12:36:19.041Z,30.60
2022-08-18T12:39:28.804Z,30.87
2022-08-18T12:42:40.680Z,30.70
2022-08-18T12:45:47.291Z,31.73
2022-08-18T12:48:55.910Z,32.01
2022-08-18T12:52:03.380Z,31.75
2022-08-18T12:55:22.009Z,30.82
2022-08-18T12:58:31.453Z,31.62
2022-08-18T13:01:43.820Z,32.53
2022-08-18T13:04:49.507Z,32.19
2022-08-18T13:07:56.294Z,30.89
2022-08-18T13:11:14.500Z,31.64
2022-08-18T13:14:32.224Z,32.12
2022-08-18T13:17:41.593Z,32.03
2022-08-18T13:20:51.299Z,30.41
2022-08-18T13:23:57.467Z,31.49
2022-08-18T13:27:18.657Z,30.38
2022-08-18T13:30:32.887Z,30.67
2022-08-18T13:33:56.848Z,30.12
2022-08-18T13:37:03.391Z,30.45
2022-08-18T13:40:10.550Z,30.31
2022-08-18T13:43:23.278Z,30.14
2022-08-18T13:46:31.810Z,28.99
2022-08-18T13:49:37.637Z,29.49
2022-08-18T13:52:44.814Z,31.49
2022-08-18T13:55:51.806Z,31.82
2022-08-18T13:58:57.420Z,33.11
2022-08-18T14:02:11.716Z,32.81
2022-08-18T14:05:19.075Z,32.19
2022-08-18T14:08:29.309Z,32.72
2022-08-18T14:11:41.837Z,31.24
2022-08-18T14:14:47.704Z,30.60
2022-08-18T14:17:56.072Z,31.13
2022-08-18T14:21:17.041Z,31.54
2022-08-18T14:24:41.320Z,32.55
2022-08-18T14:27:56.695Z,32.90
2022-08-18T14:31:07.027Z,31.20
2022-08-18T14:34:15.473Z,32.39
2022-08-18T14:37:27.929Z,31.73
2022-08-18T14:40:35.095Z,32.12
2022-08-18T14:44:05.479Z,32.33
2022-08-18T14:47:07.644Z,32.42
2022-08-18T14:50:15.972Z,32.53
2022-08-18T14:53:33.846Z,32.55
2022-08-18T14:56:41.402Z,33.01
2022-08-18T14:59:47.831Z,32.74
2022-08-18T15:02:53.449Z,32.96
2022-08-18T15:06:06.417Z,33.59
2022-08-18T15:09:20.350Z,33.27
2022-08-18T15:12:35.357Z,32.72
2022-08-18T15:15:50.557Z,31.66
2022-08-18T15:18:57.045Z,32.63
2022-08-18T15:22:17.643Z,32.22
2022-08-18T15:25:45.056Z,31.73
2022-08-18T15:28:50.934Z,31.43
2022-08-18T15:32:10.257Z,32.56
2022-08-18T15:35:23.244Z,32.77
2022-08-18T15:38:31.567Z,32.33
2022-08-18T15:41:43.974Z,32.23
2022-08-18T15:44:52.577Z,32.42
2022-08-18T15:47:59.666Z,32.00
2022-08-18T15:51:12.542Z,31.47
2022-08-18T15:54:20.904Z,30.91
2022-08-18T15:57:39.197Z,32.12
2022-08-18T16:00:50.480Z,32.55
2022-08-18T16:04:10.378Z,32.59
2022-08-18T16:07:25.188Z,32.50
2022-08-18T16:10:54.325Z,31.77
2022-08-18T16:14:05.339Z,32.35
2022-08-18T16:17:23.462Z,32.35
2022-08-18T16:20:36.947Z,33.09
2022-08-18T16:23:45.256Z,33.38
2022-08-18T16:26:59.772Z,33.67
2022-08-18T16:30:07.502Z,34.06
2022-08-18T16:33:25.253Z,34.44
2022-08-18T16:36:30.965Z,34.40
2022-08-18T16:39:36.733Z,34.62
2022-08-18T16:42:46.026Z,34.21
2022-08-18T16:45:57.323Z,34.45
2022-08-18T16:49:08.307Z,34.59
2022-08-18T16:52:15.699Z,35.03
2022-08-18T16:55:21.383Z,35.27
2022-08-18T16:58:41.982Z,35.41
2022-08-18T17:02:00.339Z,36.03
2022-08-18T17:05:06.977Z,36.40
2022-08-18T17:08:13.164Z,37.17
2022-08-18T17:11:27.427Z,36.97
2022-08-18T17:14:38.194Z,38.05
2022-08-18T17:17:44.209Z,38.86
2022-08-18T17:20:50.675Z,39.92
2022-08-18T17:23:58.773Z,40.33
2022-08-18T17:27:26.558Z,41.01
2022-08-18T17:30:49.220Z,41.54
2022-08-18T17:34:18.881Z,41.98
2022-08-18T17:37:26.848Z,42.64
2022-08-18T17:40:43.190Z,42.39
2022-08-18T17:43:49.999Z,43.13
2022-08-18T17:47:03.337Z,43.45
2022-08-18T17:50:45.824Z,43.56
2022-08-18T17:53:52.273Z,44.34
2022-08-18T17:57:05.775Z,44.40
2022-08-18T18:00:23.616Z,44.79
2022-08-18T18:03:34.232Z,45.22
2022-08-18T18:06:46.277Z,45.66
2022-08-18T18:10:08.477Z,45.58
2022-08-18T18:13:32.605Z,45.75
2022-08-18T18:16:39.100Z,45.53
2022-08-18T18:19:52.285Z,46.42
2022-08-18T18:22:59.176Z,46.29
2022-08-18T18:26:36.719Z,46.66
2022-08-18T18:29:43.325Z,46.36
2022-08-18T18:33:08.120Z,46.46
2022-08-18T18:36:36.981Z,46.72
2022-08-18T18:39:42.593Z,46.78
2022-08-18T18:42:48.368Z,47.08
2022-08-18T18:46:34.896Z,47.55
2022-08-18T18:49:55.570Z,47.70
2022-08-18T18:53:23.738Z,47.89
2022-08-18T18:56:38.913Z,48.18
2022-08-18T19:00:10.615Z,48.49
2022-08-18T19:03:26.918Z,48.38
2022-08-18T19:06:44.294Z,48.75
2022-08-18T19:10:09.769Z,49.73
2022-08-18T19:13:32.295Z,49.70
2022-08-18T19:16:49.856Z,49.95
2022-08-18T19:20:05.650Z,50.44
2022-08-18T19:23:44.557Z,51.05
2022-08-18T19:27:02.750Z,50.86
2022-08-18T19:30:20.149Z,51.65
2022-08-18T19:33:46.607Z,51.62
2022-08-18T19:37:05.878Z,51.35
2022-08-18T19:40:21.660Z,51.51
2022-08-18T19:43:45.146Z,51.57
2022-08-18T19:46:57.362Z,51.81
2022-08-18T19:50:18.477Z,51.77
2022-08-18T19:54:07.614Z,51.76
2022-08-18T19:57:37.453Z,52.37
2022-08-18T20:00:58.362Z,52.28
2022-08-18T20:04:31.154Z,52.03
2022-08-18T20:08:11.509Z,52.53
2022-08-18T20:11:46.625Z,52.55
2022-08-18T20:15:16.828Z,52.60
2022-08-18T20:18:36.005Z,52.78
2022-08-18T20:21:51.357Z,53.20
2022-08-18T20:25:12.564Z,53.24
2022-08-18T20:28:38.741Z,53.22
2022-08-18T20:32:06.471Z,53.13
2022-08-18T20:35:32.615Z,53.39
2022-08-18T20:38:45.841Z,53.78
2022-08-18T20:41:52.095Z,54.29
2022-08-18T20:45:05.802Z,54.00
2022-08-18T20:48:47.611Z,53.80
2022-08-18T20:52:07.085Z,54.05
2022-08-18T20:55:36.434Z,53.52
2022-08-18T20:58:57.765Z,54.39
2022-08-18T21:02:08.911Z,54.04
2022-08-18T21:05:16.642Z,54.14
2022-08-18T21:08:41.440Z,54.02
2022-08-18T21:11:52.719Z,54.15
2022-08-18T21:15:03.168Z,54.06
2022-08-18T21:18:21.824Z,54.21
2022-08-18T21:21:33.197Z,53.77
2022-08-18T21:24:50.153Z,53.97
2022-08-18T21:27:57.664Z,53.55
2022-08-18T21:31:42.510Z,54.07
2022-08-18T21:34:43.023Z,53.76
2022-08-18T21:37:59.931Z,53.68
2022-08-18T21:41:16.802Z,54.08
2022-08-18T21:44:29.122Z,54.31
2022-08-18T21:47:37.991Z,54.39
2022-08-18T21:50:58.403Z,54.49
2022-08-18T21:54:28.127Z,54.39
2022-08-18T21:58:03.844Z,54.37
2022-08-18T22:01:26.190Z,54.91
2022-08-18T22:04:36.452Z,54.79
2022-08-18T22:07:50.143Z,55.03
2022-08-18T22:12:01.313Z,55.41
2022-08-18T22:15:18.971Z,55.62
2022-08-18T22:18:42.488Z,55.34
2022-08-18T22:21:56.592Z,55.37
2022-08-18T22:25:00.246Z,55.64
2022-08-18T22:28:06.294Z,56.17
2022-08-18T22:31:21.057Z,55.91
2022-08-18T22:34:34.455Z,56.45
2022-08-18T22:37:50.805Z,56.47
2022-08-18T22:40:56.992Z,56.69
2022-08-18T22:44:05.843Z,56.86
2022-08-18T22:47:14.516Z,56.72
2022-08-18T22:50:38.284Z,56.83
2022-08-18T22:53:46.738Z,57.13
2022-08-18T22:56:57.643Z,57.41
2022-08-18T23:00:10.626Z,57.45
2022-08-18T23:03:42.378Z,57.47
2022-08-18T23:06:52.160Z,58.82
2022-08-18T23:10:00.207Z,59.16
2022-08-18T23:13:09.242Z,59.09
2022-08-18T23:16:31.863Z,58.96
2022-08-18T23:19:40.924Z,59.38
2022-08-18T23:22:47.034Z,59.12
2022-08-18T23:25:52.793Z,59.08
2022-08-18T23:28:58.329Z,59.75
2022-08-18T23:32:05.314Z,59.71
2022-08-18T23:35:13.641Z,59.95
2022-08-18T23:38:20.243Z,60.16
2022-08-18T23:41:28.539Z,60.33
2022-08-18T23:44:34.376Z,60.06
2022-08-18T23:47:41.597Z,60.98
2022-08-18T23:50:53.620Z,60.94
2022-08-18T23:54:05.247Z,61.03
2022-08-18T23:57:10.856Z,61.08
